Time;durP1;ratioP1;P1;durP2;ratioP2;P2;SDS_P1;SDS_P2;PMS_P1;PMS_P2;Temp;Humidity;BMP_temperature;BMP_pressure;BME280_temperature;BME280_humidity;BME280_pressure;Samples;Min_cycle;Max_cycle;Signal;HPM_P1;HPM_P2
2022/10/15 00:00:40;;;;;;;1.80;1.70;;;;;18.80;99644.00;;;;2080526;28;20225;-51
2022/10/15 00:01:41;;;;;;;1.60;1.50;;;;;18.70;99650.00;;;;2086802;28;20230;-51
2022/10/15 00:02:41;;;;;;;1.60;1.50;;;;;18.70;99647.00;;;;2087695;28;20200;-51
2022/10/15 00:03:42;;;;;;;1.83;1.70;;;;;18.70;99646.00;;;;2088474;28;20201;-51
2022/10/15 00:04:43;;;;;;;2.35;2.15;;;;;18.80;99640.00;;;;2088597;28;20216;-52
2022/10/15 00:05:43;;;;;;;1.67;1.57;;;;;18.80;99644.00;;;;2088643;28;21286;-50
2022/10/15 00:06:43;;;;;;;1.57;1.47;;;;;18.80;99649.00;;;;2088270;28;20586;-52
2022/10/15 00:07:44;;;;;;;1.90;1.80;;;;;18.80;99644.00;;;;2079341;28;20769;-52
2022/10/15 00:08:44;;;;;;;1.77;1.47;;;;;18.80;99645.00;;;;2080187;28;20697;-52
2022/10/15 00:09:45;;;;;;;1.70;1.60;;;;;18.80;99634.00;;;;2080351;28;20213;-51
2022/10/15 00:10:45;;;;;;;1.93;1.60;;;;;18.80;99638.00;;;;2080044;28;20583;-52
2022/10/15 00:11:45;;;;;;;1.67;1.57;;;;;18.80;99651.00;;;;2079962;28;20625;-52
2022/10/15 00:12:46;;;;;;;1.90;1.70;;;;;18.80;99640.00;;;;2079447;28;20743;-50
2022/10/15 00:13:46;;;;;;;1.60;1.50;;;;;18.80;99644.00;;;;2079846;28;20737;-51
2022/10/15 00:14:46;;;;;;;1.90;1.80;;;;;18.80;99635.00;;;;2080358;28;20724;-52
2022/10/15 00:15:47;;;;;;;1.80;1.57;;;;;18.80;99633.00;;;;2080413;28;20209;-50
2022/10/15 00:16:47;;;;;;;1.50;1.40;;;;;18.70;99634.00;;;;2078872;28;20439;-51
2022/10/15 00:17:48;;;;;;;1.50;1.40;;;;;18.80;99644.00;;;;2079762;28;20706;-52
2022/10/15 00:18:48;;;;;;;1.47;1.37;;;;;18.80;99630.00;;;;2080435;28;20681;-51
2022/10/15 00:19:48;;;;;;;1.87;1.77;;;;;18.80;99627.00;;;;2075761;28;20890;-51
2022/10/15 00:20:49;;;;;;;1.63;1.53;;;;;18.70;99632.00;;;;2080295;28;20217;-51
2022/10/15 00:21:49;;;;;;;1.73;1.63;;;;;18.80;99631.00;;;;2079253;28;20221;-50
2022/10/15 00:22:49;;;;;;;1.70;1.60;;;;;18.80;99626.00;;;;2078962;28;20219;-51
2022/10/15 00:23:50;;;;;;;1.30;1.20;;;;;18.80;99628.00;;;;2079873;28;20223;-52
2022/10/15 00:24:50;;;;;;;1.50;1.40;;;;;18.80;99631.00;;;;2079735;28;20225;-50
2022/10/15 00:26:00;;;;;;;1.40;1.30;;;;;18.80;99633.00;;;;2079668;28;20205;-51
2022/10/15 00:27:00;;;;;;;1.48;1.38;;;;;18.70;99625.00;;;;2079465;28;20570;-49
2022/10/15 00:28:00;;;;;;;1.77;1.67;;;;;18.70;99624.00;;;;2083873;28;20216;-51
2022/10/15 00:29:01;;;;;;;2.10;1.90;;;;;18.70;99624.00;;;;2087787;28;20220;-52
2022/10/15 00:30:02;;;;;;;1.73;1.63;;;;;18.70;99629.00;;;;2087630;28;20243;-51
2022/10/15 00:31:07;;;;;;;1.65;1.55;;;;;18.80;99631.00;;;;2087812;28;20771;-51
2022/10/15 00:32:07;;;;;;;1.55;1.45;;;;;18.80;99626.00;;;;2087104;28;20224;-52
2022/10/15 00:33:08;;;;;;;1.70;1.53;;;;;18.80;99628.00;;;;2088364;28;20225;-52
2022/10/15 00:34:08;;;;;;;1.63;1.53;;;;;18.80;99626.00;;;;2087582;28;20707;-52
2022/10/15 00:35:08;;;;;;;1.87;1.60;;;;;18.80;99622.00;;;;2087856;28;20300;-52
2022/10/15 00:36:14;;;;;;;1.80;1.70;;;;;18.70;99618.00;;;;2087698;28;20251;-50
2022/10/15 00:37:16;;;;;;;1.60;1.50;;;;;18.70;99632.00;;;;2081409;28;20229;-52
2022/10/15 00:38:16;;;;;;;1.70;1.60;;;;;18.70;99620.00;;;;2079458;28;20652;-51
2022/10/15 00:39:16;;;;;;;1.87;1.77;;;;;18.70;99623.00;;;;2079834;28;20221;-52
2022/10/15 00:40:18;;;;;;;1.53;1.43;;;;;18.70;99622.00;;;;2081148;28;20229;-51
2022/10/15 00:41:21;;;;;;;1.75;1.65;;;;;18.70;99618.00;;;;2086654;28;20258;-52
2022/10/15 00:42:22;;;;;;;1.63;1.50;;;;;18.70;99623.00;;;;2086662;28;20221;-50
2022/10/15 00:43:42;;;;;;;1.63;1.53;;;;;18.70;99623.00;;;;2087187;28;20731;-51
2022/10/15 00:44:48;;;;;;;2.28;2.03;;;;;18.70;99621.00;;;;2087163;28;20258;-52
2022/10/15 00:45:48;;;;;;;1.60;1.50;;;;;18.70;99623.00;;;;2087624;28;20224;-52
2022/10/15 00:46:56;;;;;;;1.53;1.43;;;;;18.70;99623.00;;;;2087238;28;20220;-52
2022/10/15 00:47:56;;;;;;;1.60;1.50;;;;;18.80;99622.00;;;;2079201;28;20217;-51
2022/10/15 00:49:29;;;;;;;1.73;1.63;;;;;18.80;99624.00;;;;2079924;28;20233;-51
2022/10/15 00:50:30;;;;;;;1.92;1.73;;;;;18.80;99625.00;;;;2082163;28;20228;-50
2022/10/15 00:51:35;;;;;;;1.90;1.70;;;;;18.70;99619.00;;;;2087489;28;20247;-51
2022/10/15 00:52:37;;;;;;;1.88;1.75;;;;;18.80;99620.00;;;;2086387;28;20230;-50
2022/10/15 00:53:38;;;;;;;1.50;1.40;;;;;18.70;99629.00;;;;2087470;28;20251;-50
2022/10/15 00:54:41;;;;;;;1.80;1.60;;;;;18.80;99630.00;;;;2086822;28;20284;-50
2022/10/15 00:55:41;;;;;;;1.42;1.33;;;;;18.70;99631.00;;;;2087218;28;20573;-52
2022/10/15 00:56:42;;;;;;;1.97;1.80;;;;;18.80;99625.00;;;;2087440;28;20303;-53
2022/10/15 00:57:42;;;;;;;1.50;1.40;;;;;18.80;99630.00;;;;2087176;28;20211;-50
2022/10/15 00:58:43;;;;;;;1.40;1.30;;;;;18.80;99628.00;;;;2087350;28;20483;-52
2022/10/15 00:59:49;;;;;;;1.90;1.70;;;;;18.80;99632.00;;;;2079284;28;20206;-52
2022/10/15 01:00:49;;;;;;;1.95;1.73;;;;;18.80;99630.00;;;;2087424;28;20220;-52
2022/10/15 01:01:50;;;;;;;1.40;1.30;;;;;18.80;99628.00;;;;2087273;28;20240;-52
2022/10/15 01:02:50;;;;;;;1.40;1.30;;;;;18.80;99628.00;;;;2087259;28;20220;-51
2022/10/15 01:03:52;;;;;;;1.60;1.50;;;;;18.70;99623.00;;;;2087182;28;20235;-51
2022/10/15 01:04:52;;;;;;;1.73;1.63;;;;;18.80;99626.00;;;;2087338;28;20209;-50
2022/10/15 01:05:53;;;;;;;1.77;1.67;;;;;18.70;99621.00;;;;2087328;28;20690;-51
2022/10/15 01:06:53;;;;;;;1.70;1.60;;;;;18.80;99629.00;;;;2076528;28;20739;-52
2022/10/15 01:07:53;;;;;;;2.13;1.93;;;;;18.70;99621.00;;;;2070552;28;20690;-52
2022/10/15 01:08:53;;;;;;;2.20;1.93;;;;;18.80;99630.00;;;;2079760;28;20220;-52
2022/10/15 01:09:54;;;;;;;2.43;1.83;;;;;18.80;99624.00;;;;2084083;28;20220;-52
2022/10/15 01:11:21;;;;;;;1.67;1.50;;;;;18.80;99613.00;;;;2087239;28;20244;-52
2022/10/15 01:12:46;;;;;;;1.60;1.50;;;;;18.70;99637.00;;;;2080220;28;20217;-51
2022/10/15 01:13:58;;;;;;;2.10;1.90;;;;;18.70;99632.00;;;;2076585;28;20210;-49
2022/10/15 01:15:08;;;;;;;1.60;1.50;;;;;18.70;99625.00;;;;2079354;28;20220;-50
2022/10/15 01:16:16;;;;;;;1.63;1.52;;;;;18.80;99612.00;;;;2078722;28;20748;-52
2022/10/15 01:17:20;;;;;;;1.73;1.63;;;;;18.70;99620.00;;;;2071327;28;20493;-52
2022/10/15 01:18:27;;;;;;;1.67;1.58;;;;;18.70;99625.00;;;;2071750;28;20299;-52
2022/10/15 01:19:52;;;;;;;1.60;1.50;;;;;18.70;99610.00;;;;2063347;28;20345;-50
2022/10/15 01:21:15;;;;;;;1.50;1.40;;;;;18.70;99630.00;;;;2069382;28;20238;-52
2022/10/15 01:22:25;;;;;;;1.50;1.40;;;;;18.80;99629.00;;;;2066937;28;20215;-51
2022/10/15 01:23:44;;;;;;;1.90;1.80;;;;;18.70;99626.00;;;;2067377;28;20214;-51
2022/10/15 01:24:54;;;;;;;1.75;1.65;;;;;18.70;99609.00;;;;2078804;28;20561;-53
2022/10/15 01:26:12;;;;;;;1.60;1.40;;;;;18.70;99625.00;;;;2064239;28;20250;-52
2022/10/15 01:27:17;;;;;;;1.80;1.70;;;;;18.70;99626.00;;;;2072204;28;20237;-52
2022/10/15 01:28:30;;;;;;;1.63;1.52;;;;;18.70;99627.00;;;;2078715;28;20213;-51
2022/10/15 01:30:04;;;;;;;1.70;1.60;;;;;18.70;99634.00;;;;2060916;28;21063;-51
2022/10/15 01:31:24;;;;;;;1.75;1.50;;;;;18.70;99631.00;;;;2068395;28;20627;-50
2022/10/15 01:32:26;;;;;;;1.55;1.45;;;;;18.80;99613.00;;;;2074964;28;20282;-51
2022/10/15 01:33:55;;;;;;;1.73;1.60;;;;;18.80;99635.00;;;;2063396;28;20213;-50
2022/10/15 01:35:21;;;;;;;1.67;1.52;;;;;18.70;99635.00;;;;2071459;28;20210;-50
2022/10/15 01:36:38;;;;;;;1.95;1.77;;;;;18.70;99635.00;;;;2071363;28;20228;-52
2022/10/15 01:38:17;;;;;;;1.80;1.70;;;;;18.70;99628.00;;;;2080280;28;20233;-50
2022/10/15 01:39:31;;;;;;;1.60;1.50;;;;;18.70;99631.00;;;;2066265;28;20210;-52
2022/10/15 01:40:57;;;;;;;1.75;1.58;;;;;18.70;99633.00;;;;2068172;28;20217;-52
2022/10/15 01:42:03;;;;;;;1.98;1.50;;;;;18.70;99642.00;;;;2079671;28;20224;-52
2022/10/15 01:43:04;;;;;;;1.77;1.55;;;;;18.80;99634.00;;;;2078337;28;20740;-52
2022/10/15 01:44:41;;;;;;;1.50;1.40;;;;;18.70;99639.00;;;;2086847;28;20223;-49
2022/10/15 01:45:47;;;;;;;1.70;1.60;;;;;18.70;99643.00;;;;2058815;28;20222;-52
2022/10/15 01:46:54;;;;;;;1.80;1.70;;;;;18.70;99639.00;;;;2066530;28;20237;-52
2022/10/15 01:47:55;;;;;;;1.70;1.60;;;;;18.70;99641.00;;;;2075247;28;20218;-52
2022/10/15 01:48:56;;;;;;;1.60;1.50;;;;;18.70;99641.00;;;;2078935;28;20216;-51
2022/10/15 01:49:56;;;;;;;1.57;1.47;;;;;18.80;99635.00;;;;2086887;28;20220;-52
2022/10/15 01:50:59;;;;;;;1.90;1.80;;;;;18.80;99637.00;;;;2087258;28;20244;-52
2022/10/15 01:52:01;;;;;;;1.45;1.35;;;;;18.70;99638.00;;;;2074824;28;20222;-51
2022/10/15 01:53:01;;;;;;;1.70;1.60;;;;;18.70;99633.00;;;;2062360;28;20295;-50
2022/10/15 01:54:03;;;;;;;1.60;1.50;;;;;18.70;99625.00;;;;2062621;28;20238;-52
2022/10/15 01:55:05;;;;;;;2.85;1.65;;;;;18.80;99630.00;;;;2054764;28;20688;-51
2022/10/15 01:56:07;;;;;;;1.58;1.45;;;;;18.70;99634.00;;;;2062636;28;20254;-52
2022/10/15 01:57:08;;;;;;;1.42;1.33;;;;;18.70;99628.00;;;;2077058;28;20205;-50
2022/10/15 01:58:09;;;;;;;1.50;1.40;;;;;18.70;99638.00;;;;2070691;28;20690;-51
2022/10/15 01:59:09;;;;;;;1.80;1.70;;;;;18.70;99620.00;;;;2068539;28;20879;-53
2022/10/15 02:00:10;;;;;;;2.00;1.90;;;;;18.70;99633.00;;;;2062433;28;20946;-51
2022/10/15 02:01:10;;;;;;;1.80;1.63;;;;;18.70;99629.00;;;;2070180;28;20584;-52
2022/10/15 02:02:10;;;;;;;1.43;1.33;;;;;18.80;99634.00;;;;2077518;28;20225;-51
2022/10/15 02:03:11;;;;;;;1.70;1.60;;;;;18.80;99632.00;;;;2079019;28;20687;-51
2022/10/15 02:04:24;;;;;;;2.03;1.83;;;;;18.80;99632.00;;;;2079379;28;20243;-52
2022/10/15 02:05:28;;;;;;;1.92;1.73;;;;;18.70;99627.00;;;;2075513;28;20222;-52
2022/10/15 02:06:32;;;;;;;1.50;1.40;;;;;18.50;99621.00;;;;2086821;28;20705;-51
2022/10/15 02:07:56;;;;;;;1.83;1.70;;;;;18.70;99620.00;;;;2081990;28;20206;-52
2022/10/15 02:09:07;;;;;;;1.95;1.73;;;;;18.70;99627.00;;;;2078074;28;20520;-52
2022/10/15 02:10:17;;;;;;;1.40;1.30;;;;;18.70;99630.00;;;;2079121;28;20220;-52
2022/10/15 02:11:17;;;;;;;3.85;1.60;;;;;18.70;99621.00;;;;2078534;28;20396;-52
2022/10/15 02:12:27;;;;;;;1.77;1.67;;;;;18.80;99616.00;;;;2077458;28;20224;-52
2022/10/15 02:13:42;;;;;;;1.80;1.70;;;;;18.70;99620.00;;;;2074330;28;20287;-52
2022/10/15 02:14:48;;;;;;;1.63;1.52;;;;;18.70;99624.00;;;;2086998;28;20200;-50
2022/10/15 02:16:01;;;;;;;1.73;1.63;;;;;18.70;99620.00;;;;2086769;28;20229;-50
2022/10/15 02:17:07;;;;;;;2.40;1.65;;;;;18.70;99613.00;;;;2086889;28;20243;-51
2022/10/15 02:18:08;;;;;;;2.03;1.90;;;;;18.70;99614.00;;;;2086751;28;20296;-52
2022/10/15 02:19:21;;;;;;;1.90;1.70;;;;;18.80;99611.00;;;;2086454;28;20687;-52
2022/10/15 02:20:29;;;;;;;2.00;1.80;;;;;18.70;99609.00;;;;2086805;28;20243;-52
2022/10/15 02:21:57;;;;;;;2.00;1.80;;;;;18.70;99612.00;;;;2078966;28;20213;-51
2022/10/15 02:23:01;;;;;;;2.00;1.80;;;;;18.70;99617.00;;;;2079541;28;20220;-52
2022/10/15 02:24:10;;;;;;;1.60;1.50;;;;;18.80;99616.00;;;;2086475;28;20217;-51
2022/10/15 02:25:14;;;;;;;1.90;1.65;;;;;18.80;99615.00;;;;2086583;28;20226;-51
2022/10/15 02:26:14;;;;;;;1.85;1.65;;;;;18.80;99628.00;;;;2086350;28;20216;-51
2022/10/15 02:27:15;;;;;;;2.00;1.80;;;;;18.70;99611.00;;;;2086504;28;21149;-51
2022/10/15 02:28:15;;;;;;;1.93;1.83;;;;;18.70;99615.00;;;;2078142;28;20640;-51
2022/10/15 02:29:17;;;;;;;1.70;1.60;;;;;18.70;99617.00;;;;2078112;28;20615;-50
2022/10/15 02:30:17;;;;;;;1.60;1.50;;;;;18.70;99599.00;;;;2078388;28;20217;-51
2022/10/15 02:31:18;;;;;;;2.00;1.67;;;;;18.70;99611.00;;;;2078342;28;20217;-52
2022/10/15 02:32:19;;;;;;;2.03;1.67;;;;;18.70;99613.00;;;;2077365;28;20280;-52
2022/10/15 02:33:20;;;;;;;1.60;1.50;;;;;18.70;99594.00;;;;2078324;28;20213;-51
2022/10/15 02:34:21;;;;;;;1.77;1.60;;;;;18.80;99614.00;;;;2086129;28;20211;-52
2022/10/15 02:35:21;;;;;;;1.50;1.40;;;;;18.70;99596.00;;;;2086536;28;20224;-51
2022/10/15 02:36:22;;;;;;;1.87;1.50;;;;;18.70;99609.00;;;;2086567;28;20212;-51
2022/10/15 02:37:24;;;;;;;1.50;1.40;;;;;18.70;99612.00;;;;2086442;28;20216;-51
2022/10/15 02:38:25;;;;;;;1.70;1.60;;;;;18.70;99614.00;;;;2086473;28;20757;-52
2022/10/15 02:39:26;;;;;;;1.60;1.50;;;;;18.70;99606.00;;;;2086125;28;20965;-51
2022/10/15 02:40:27;;;;;;;1.40;1.30;;;;;18.80;99610.00;;;;2086366;28;20209;-50
2022/10/15 02:41:27;;;;;;;1.60;1.50;;;;;18.70;99604.00;;;;2086664;28;20239;-51
2022/10/15 02:42:28;;;;;;;2.10;1.90;;;;;18.70;99607.00;;;;2085570;28;20233;-51
2022/10/15 02:43:29;;;;;;;1.60;1.40;;;;;18.80;99608.00;;;;2078077;28;20283;-52
2022/10/15 02:44:29;;;;;;;2.13;1.50;;;;;18.70;99609.00;;;;2086074;28;20216;-52
2022/10/15 02:45:29;;;;;;;1.80;1.70;;;;;18.70;99614.00;;;;2076779;28;20468;-52
2022/10/15 02:46:30;;;;;;;2.07;1.87;;;;;18.70;99619.00;;;;2093556;28;20208;-50
2022/10/15 02:47:30;;;;;;;1.60;1.50;;;;;18.70;99616.00;;;;2087573;28;20213;-51
2022/10/15 02:48:30;;;;;;;1.40;1.27;;;;;18.70;99612.00;;;;2087250;28;20215;-52
2022/10/15 02:49:31;;;;;;;1.60;1.50;;;;;18.70;99621.00;;;;2087093;28;20259;-52
2022/10/15 02:50:31;;;;;;;1.40;1.30;;;;;18.70;99625.00;;;;2087301;28;20211;-51
2022/10/15 02:51:32;;;;;;;1.90;1.70;;;;;18.70;99608.00;;;;2086848;28;20308;-52
2022/10/15 02:52:32;;;;;;;1.53;1.43;;;;;18.70;99625.00;;;;2077138;28;20234;-51
2022/10/15 02:53:33;;;;;;;1.70;1.60;;;;;18.70;99635.00;;;;2078248;28;20472;-51
2022/10/15 02:54:33;;;;;;;1.70;1.60;;;;;18.70;99642.00;;;;2079089;28;20221;-52
2022/10/15 02:55:33;;;;;;;1.80;1.70;;;;;18.80;99641.00;;;;2078835;28;20471;-52
2022/10/15 02:56:34;;;;;;;1.67;1.57;;;;;18.80;99643.00;;;;2078846;28;20221;-52
2022/10/15 02:57:34;;;;;;;1.73;1.63;;;;;18.70;99630.00;;;;2078464;28;20218;-51
2022/10/15 02:58:35;;;;;;;1.70;1.60;;;;;18.80;99650.00;;;;2078833;28;20263;-51
2022/10/15 02:59:35;;;;;;;1.70;1.60;;;;;18.70;99544.00;;;;2082077;28;21091;-50
2022/10/15 03:00:35;;;;;;;2.13;1.93;;;;;18.70;99633.00;;;;2086804;28;20259;-51
2022/10/15 03:01:36;;;;;;;1.80;1.70;;;;;18.80;99630.00;;;;2085295;28;20209;-51
2022/10/15 03:02:36;;;;;;;1.73;1.63;;;;;18.70;99621.00;;;;2085958;28;20216;-50
2022/10/15 03:03:36;;;;;;;1.80;1.70;;;;;18.70;99621.00;;;;2086474;28;20280;-51
2022/10/15 03:04:36;;;;;;;1.63;1.53;;;;;18.70;99621.00;;;;2086756;28;20220;-52
2022/10/15 03:05:37;;;;;;;1.80;1.70;;;;;18.70;99616.00;;;;2086887;28;20266;-49
2022/10/15 03:06:38;;;;;;;2.40;2.20;;;;;18.70;99614.00;;;;2086957;28;20232;-51
2022/10/15 03:07:38;;;;;;;2.13;1.93;;;;;18.70;99612.00;;;;2086649;28;20205;-52
2022/10/15 03:08:38;;;;;;;2.27;2.07;;;;;18.70;99615.00;;;;2086586;28;20458;-51
2022/10/15 03:09:39;;;;;;;1.90;1.80;;;;;18.70;99614.00;;;;2086874;28;20216;-52
2022/10/15 03:10:39;;;;;;;1.63;1.53;;;;;18.70;99612.00;;;;2086669;28;20229;-51
2022/10/15 03:11:39;;;;;;;1.80;1.70;;;;;18.70;99602.00;;;;2086828;28;20225;-51
2022/10/15 03:12:40;;;;;;;2.17;1.97;;;;;18.70;99606.00;;;;2086087;28;20205;-51
2022/10/15 03:13:40;;;;;;;1.77;1.67;;;;;18.70;99612.00;;;;2086584;28;20287;-52
2022/10/15 03:14:40;;;;;;;2.27;2.07;;;;;18.70;99611.00;;;;2087198;28;20208;-52
2022/10/15 03:15:41;;;;;;;2.60;1.93;;;;;18.70;99618.00;;;;2087058;28;20266;-52
2022/10/15 03:16:41;;;;;;;1.87;1.77;;;;;18.70;99604.00;;;;2087034;28;20240;-52
2022/10/15 03:17:41;;;;;;;2.67;1.67;;;;;18.70;99612.00;;;;2086723;28;20208;-51
2022/10/15 03:18:42;;;;;;;1.77;1.67;;;;;18.70;99611.00;;;;2086687;28;20227;-50
2022/10/15 03:19:42;;;;;;;1.80;1.70;;;;;18.80;99614.00;;;;2086765;28;20263;-50
2022/10/15 03:20:43;;;;;;;2.80;1.77;;;;;18.70;99608.00;;;;2086713;28;20315;-50
2022/10/15 03:21:43;;;;;;;2.30;1.60;;;;;18.80;99610.00;;;;2084504;28;20208;-52
2022/10/15 03:22:43;;;;;;;1.70;1.60;;;;;18.80;99601.00;;;;2086208;28;20228;-52
2022/10/15 03:23:44;;;;;;;1.70;1.60;;;;;18.70;99584.00;;;;2086968;28;20684;-52
2022/10/15 03:24:44;;;;;;;1.60;1.50;;;;;18.70;99609.00;;;;2086885;28;20706;-49
2022/10/15 03:25:44;;;;;;;1.67;1.57;;;;;18.70;99610.00;;;;2086924;28;20216;-51
2022/10/15 03:26:45;;;;;;;1.90;1.73;;;;;18.70;99607.00;;;;2078753;28;20241;-52
2022/10/15 03:27:45;;;;;;;1.70;1.60;;;;;18.70;99604.00;;;;2078724;28;20235;-52
2022/10/15 03:28:45;;;;;;;1.47;1.37;;;;;18.80;99605.00;;;;2078238;28;20444;-51
2022/10/15 03:29:46;;;;;;;1.97;1.87;;;;;18.70;99612.00;;;;2078345;28;20248;-52
2022/10/15 03:30:46;;;;;;;1.70;1.60;;;;;18.70;99598.00;;;;2078410;28;20232;-51
2022/10/15 03:31:46;;;;;;;2.13;1.93;;;;;18.70;99603.00;;;;2077503;28;20222;-50
2022/10/15 03:32:47;;;;;;;1.80;1.70;;;;;18.70;99595.00;;;;2078405;28;20292;-51
2022/10/15 03:33:47;;;;;;;1.73;1.63;;;;;18.70;99599.00;;;;2078159;28;20287;-52
2022/10/15 03:34:47;;;;;;;2.07;1.87;;;;;18.80;99598.00;;;;2082228;28;20236;-52
2022/10/15 03:35:47;;;;;;;1.70;1.60;;;;;18.70;99594.00;;;;2078655;28;20224;-52
2022/10/15 03:36:48;;;;;;;1.73;1.63;;;;;18.70;99591.00;;;;2078643;28;20245;-52
2022/10/15 03:37:48;;;;;;;1.83;1.70;;;;;18.70;99583.00;;;;2078704;28;20263;-52
2022/10/15 03:38:48;;;;;;;3.80;1.93;;;;;18.70;99587.00;;;;2086092;28;20216;-52
2022/10/15 03:39:49;;;;;;;1.73;1.63;;;;;18.70;99582.00;;;;2086966;28;20373;-50
2022/10/15 03:40:49;;;;;;;2.00;1.80;;;;;18.70;99586.00;;;;2086702;28;20220;-50
2022/10/15 03:41:52;;;;;;;2.30;1.70;;;;;18.70;99581.00;;;;2086070;28;20212;-51
2022/10/15 03:42:52;;;;;;;1.83;1.73;;;;;18.70;99582.00;;;;2078849;28;20214;-50
2022/10/15 03:43:53;;;;;;;1.77;1.67;;;;;18.70;99582.00;;;;2078655;28;20220;-52
2022/10/15 03:44:53;;;;;;;1.93;1.73;;;;;18.70;99586.00;;;;2078618;28;20213;-51
2022/10/15 03:45:53;;;;;;;1.60;1.50;;;;;18.70;99585.00;;;;2078600;28;20704;-51
2022/10/15 03:46:54;;;;;;;2.00;1.60;;;;;18.70;99579.00;;;;2078531;28;20719;-52
2022/10/15 03:47:54;;;;;;;2.10;1.90;;;;;18.70;99578.00;;;;2086595;28;20216;-50
2022/10/15 03:48:54;;;;;;;2.20;2.00;;;;;18.70;99567.00;;;;2082320;28;20225;-50
2022/10/15 03:49:55;;;;;;;1.67;1.57;;;;;18.70;99565.00;;;;2086952;28;20683;-50
2022/10/15 03:50:55;;;;;;;1.80;1.67;;;;;18.70;99572.00;;;;2087030;28;20221;-50
2022/10/15 03:51:56;;;;;;;2.00;1.80;;;;;18.70;99560.00;;;;2077956;28;20244;-51
2022/10/15 03:52:56;;;;;;;2.23;1.73;;;;;18.70;99573.00;;;;2080205;28;20660;-50
2022/10/15 03:53:56;;;;;;;2.00;1.80;;;;;18.70;99580.00;;;;2084775;28;20619;-50
2022/10/15 03:54:56;;;;;;;1.57;1.47;;;;;18.70;99579.00;;;;2078950;28;20579;-51
2022/10/15 03:56:02;;;;;;;2.10;1.83;;;;;18.70;99577.00;;;;2076499;28;20757;-51
2022/10/15 03:57:03;;;;;;;1.52;1.42;;;;;18.70;99576.00;;;;2086003;28;20217;-51
2022/10/15 03:58:03;;;;;;;2.00;1.83;;;;;18.70;99580.00;;;;2086714;28;20232;-50
2022/10/15 03:59:03;;;;;;;1.70;1.60;;;;;18.70;99570.00;;;;2086889;28;20286;-51
2022/10/15 04:00:05;;;;;;;1.50;1.40;;;;;18.70;99579.00;;;;2078762;28;20213;-50
2022/10/15 04:01:09;;;;;;;1.75;1.65;;;;;18.70;99579.00;;;;2084299;28;20239;-51
2022/10/15 04:02:10;;;;;;;1.70;1.52;;;;;18.70;99582.00;;;;2071461;28;20211;-51
2022/10/15 04:03:10;;;;;;;1.57;1.30;;;;;18.70;99573.00;;;;2082005;28;20223;-50
2022/10/15 04:04:11;;;;;;;2.10;2.00;;;;;18.70;99580.00;;;;2085519;28;20212;-50
2022/10/15 04:05:12;;;;;;;1.70;1.60;;;;;18.70;99573.00;;;;2081058;28;20216;-52
2022/10/15 04:06:12;;;;;;;2.17;1.97;;;;;18.80;99573.00;;;;2086974;28;20573;-51
2022/10/15 04:07:12;;;;;;;1.73;1.63;;;;;18.70;99573.00;;;;2079634;28;20590;-51
2022/10/15 04:08:13;;;;;;;3.37;2.03;;;;;18.70;99584.00;;;;2086371;28;20295;-50
2022/10/15 04:09:13;;;;;;;2.00;1.90;;;;;18.70;99579.00;;;;2086957;28;20231;-51
2022/10/15 04:10:13;;;;;;;1.83;1.73;;;;;18.70;99570.00;;;;2083599;28;20205;-53
2022/10/15 04:11:14;;;;;;;1.73;1.63;;;;;18.70;99580.00;;;;2078724;28;20812;-51
2022/10/15 04:12:14;;;;;;;1.80;1.70;;;;;18.70;99582.00;;;;2077875;28;20251;-50
2022/10/15 04:13:14;;;;;;;1.80;1.70;;;;;18.70;99584.00;;;;2078534;28;20640;-51
2022/10/15 04:14:15;;;;;;;2.17;2.00;;;;;18.70;99578.00;;;;2084863;28;20217;-51
2022/10/15 04:15:15;;;;;;;1.83;1.70;;;;;18.70;99586.00;;;;2079419;28;20213;-51
2022/10/15 04:16:16;;;;;;;1.87;1.77;;;;;18.70;99585.00;;;;2078614;28;20256;-51
2022/10/15 04:17:16;;;;;;;1.83;1.67;;;;;18.70;99588.00;;;;2078730;28;20217;-51
2022/10/15 04:18:19;;;;;;;1.80;1.70;;;;;18.70;99602.00;;;;2084653;28;20209;-51
2022/10/15 04:19:19;;;;;;;1.75;1.65;;;;;18.70;99593.00;;;;2086565;28;20209;-50
2022/10/15 04:20:20;;;;;;;2.00;1.90;;;;;18.70;99593.00;;;;2084534;28;20255;-51
2022/10/15 04:21:20;;;;;;;1.60;1.50;;;;;18.70;99595.00;;;;2086839;28;20211;-51
2022/10/15 04:22:20;;;;;;;3.10;1.60;;;;;18.70;99587.00;;;;2082381;28;20197;-51
2022/10/15 04:23:21;;;;;;;1.73;1.63;;;;;18.70;99596.00;;;;2086675;28;20229;-50
2022/10/15 04:24:21;;;;;;;1.83;1.70;;;;;18.70;99597.00;;;;2078566;28;20655;-50
2022/10/15 04:25:21;;;;;;;1.73;1.63;;;;;18.70;99595.00;;;;2078673;28;20751;-51
2022/10/15 04:26:22;;;;;;;1.67;1.57;;;;;18.80;99595.00;;;;2078300;28;20229;-50
2022/10/15 04:27:22;;;;;;;2.00;1.80;;;;;18.70;99589.00;;;;2077765;28;20214;-50
2022/10/15 04:28:22;;;;;;;2.07;1.87;;;;;18.70;99595.00;;;;2077867;28;20639;-51
2022/10/15 04:29:23;;;;;;;1.67;1.57;;;;;18.80;99597.00;;;;2078086;28;20615;-51
2022/10/15 04:30:23;;;;;;;1.60;1.50;;;;;18.70;99596.00;;;;2078531;28;20623;-51
2022/10/15 04:31:23;;;;;;;1.93;1.83;;;;;18.70;99597.00;;;;2078524;28;20574;-51
2022/10/15 04:32:24;;;;;;;1.80;1.50;;;;;18.70;99598.00;;;;2077552;28;20717;-51
2022/10/15 04:33:24;;;;;;;1.93;1.80;;;;;18.70;99591.00;;;;2079697;28;20209;-51
2022/10/15 04:34:25;;;;;;;2.20;2.00;;;;;18.70;99595.00;;;;2086782;28;20258;-51
2022/10/15 04:35:25;;;;;;;1.70;1.60;;;;;18.70;99600.00;;;;2086633;28;20209;-50
2022/10/15 04:36:25;;;;;;;2.03;1.90;;;;;18.70;99596.00;;;;2086223;28;20231;-51
2022/10/15 04:37:26;;;;;;;2.10;1.90;;;;;18.70;99600.00;;;;2077515;28;20299;-51
2022/10/15 04:38:26;;;;;;;2.20;2.00;;;;;18.70;99601.00;;;;2078449;28;20213;-50
2022/10/15 04:39:26;;;;;;;2.20;1.97;;;;;18.70;99597.00;;;;2078543;28;20263;-51
2022/10/15 04:40:27;;;;;;;2.00;1.80;;;;;18.70;99593.00;;;;2078315;28;20296;-50
2022/10/15 04:41:27;;;;;;;1.90;1.80;;;;;18.70;99587.00;;;;2086270;28;20208;-50
2022/10/15 04:42:28;;;;;;;2.00;1.90;;;;;18.70;99603.00;;;;2079952;28;20212;-51
2022/10/15 04:43:28;;;;;;;1.77;1.67;;;;;18.70;99604.00;;;;2077842;28;20205;-51
2022/10/15 04:44:29;;;;;;;2.20;2.00;;;;;18.80;99606.00;;;;2078412;28;20206;-51
2022/10/15 04:45:29;;;;;;;2.10;1.87;;;;;18.70;99596.00;;;;2087484;28;20258;-51
2022/10/15 04:46:29;;;;;;;1.70;1.60;;;;;18.70;99603.00;;;;2086580;28;20208;-51
2022/10/15 04:47:30;;;;;;;2.10;1.90;;;;;18.70;99606.00;;;;2082965;28;20248;-51
2022/10/15 04:48:31;;;;;;;1.73;1.63;;;;;18.70;99602.00;;;;2082525;28;20619;-50
2022/10/15 04:49:31;;;;;;;1.58;1.48;;;;;18.70;99600.00;;;;2086838;28;20205;-50
2022/10/15 04:50:32;;;;;;;1.60;1.50;;;;;18.70;99605.00;;;;2085632;28;20232;-51
2022/10/15 04:51:32;;;;;;;1.87;1.70;;;;;18.70;99599.00;;;;2084852;28;20266;-50
2022/10/15 04:52:33;;;;;;;1.90;1.57;;;;;18.70;99601.00;;;;2087020;28;20223;-51
2022/10/15 04:53:33;;;;;;;2.10;1.90;;;;;18.70;99593.00;;;;2083549;28;20212;-50
2022/10/15 04:54:34;;;;;;;1.97;1.63;;;;;18.70;99598.00;;;;2080349;28;20217;-51
2022/10/15 04:55:34;;;;;;;1.80;1.70;;;;;18.70;99602.00;;;;2087620;28;20205;-51
2022/10/15 04:56:34;;;;;;;1.47;1.37;;;;;18.70;99594.00;;;;2087652;28;20224;-50
2022/10/15 04:57:35;;;;;;;1.67;1.57;;;;;18.70;99606.00;;;;2080316;28;20227;-51
2022/10/15 04:58:35;;;;;;;2.03;1.67;;;;;18.70;99596.00;;;;2083296;28;20237;-51
2022/10/15 04:59:35;;;;;;;2.00;1.90;;;;;18.70;99602.00;;;;2080590;28;20292;-51
2022/10/15 05:00:37;;;;;;;2.07;1.87;;;;;18.70;99614.00;;;;2078627;28;20586;-51
2022/10/15 05:01:37;;;;;;;2.17;1.70;;;;;18.70;99599.00;;;;2077408;28;20217;-51
2022/10/15 05:02:41;;;;;;;2.23;2.03;;;;;18.70;99599.00;;;;2077319;28;20250;-51
2022/10/15 05:03:42;;;;;;;2.08;1.98;;;;;18.70;99593.00;;;;2085112;28;20827;-51
2022/10/15 05:04:42;;;;;;;2.15;1.95;;;;;18.70;99595.00;;;;2085837;28;21319;-51
2022/10/15 05:05:42;;;;;;;1.70;1.53;;;;;18.70;99601.00;;;;2088227;28;20239;-51
2022/10/15 05:06:43;;;;;;;1.97;1.87;;;;;18.80;99596.00;;;;2086715;28;20209;-51
2022/10/15 05:07:43;;;;;;;2.00;1.77;;;;;18.70;99598.00;;;;2081950;28;20240;-51
2022/10/15 05:08:44;;;;;;;1.63;1.50;;;;;18.70;99600.00;;;;2081457;28;20291;-51
2022/10/15 05:09:44;;;;;;;2.30;2.10;;;;;18.70;99596.00;;;;2079644;28;20288;-51
2022/10/15 05:10:44;;;;;;;1.90;1.80;;;;;18.70;99592.00;;;;2084355;28;20205;-51
2022/10/15 05:11:45;;;;;;;1.70;1.60;;;;;18.70;99598.00;;;;2087690;28;20224;-51
2022/10/15 05:12:45;;;;;;;1.93;1.77;;;;;18.70;99595.00;;;;2084836;28;20291;-51
2022/10/15 05:13:45;;;;;;;1.70;1.60;;;;;18.70;99587.00;;;;2082967;28;21187;-51
2022/10/15 05:14:46;;;;;;;1.60;1.50;;;;;18.70;99586.00;;;;2087195;28;21120;-51
2022/10/15 05:15:46;;;;;;;1.90;1.80;;;;;18.70;99589.00;;;;2083527;28;20567;-50